Christine Anderson — WCN2606 — position and weather

sailwx.info

Track history (hours):
 
Tides and Currents Weather Stations Pressure Air Temp Water Temp Dewpoint Dewpoint Depression Visibility Wind Speed Wind Dir Waves Ship Positions

Christine Anderson

Owner: PIERCE, COUNTY OF, TACOMA, WA. More information available from US FCC via Universal Licensing System and Coast Guard Vessel Documentation Center.

Last reported at 2015-Jul-04 06:29 UTC. Time now 2015-Jul-04 10:05 UTC.
Position N 47°11' W 122°41'.

MMSI: 366659730.

Date/timePositionNaut miles runAvg speedWind from/ knotsBaromVisibWave heightAir tempDewpointWater temp
2015-Jul-04 06:29N 47°11' W 122°41'1 0.7
2015-Jul-04 05:33N 47°11' W 122°40'2 2.3
2015-Jul-04 04:30N 47°10' W 122°36'0 0.0
2015-Jul-04 03:33N 47°10' W 122°36'0 0.0
2015-Jul-04 02:33N 47°10' W 122°36'0 0.4
2015-Jul-04 01:33N 47°11' W 122°37'3 2.5
2015-Jul-04 00:27N 47°11' W 122°41'0 0.4
2015-Jul-03 23:32N 47°11' W 122°40'1 1.3
2015-Jul-03 22:33N 47°11' W 122°38'1 1.1
2015-Jul-03 21:32N 47°11' W 122°37'0 0.4
2015-Jul-03 20:33N 47°10' W 122°36'2 1.6
2015-Jul-03 19:33N 47°11' W 122°38'0 0.4
2015-Jul-03 18:32N 47°11' W 122°39'1 1.0
2015-Jul-03 17:32N 47°11' W 122°40'0 0.2
2015-Jul-03 16:31N 47°11' W 122°41'0 0.0
2015-Jul-03 15:25N 47°11' W 122°40'0 0.5
2015-Jul-03 14:33N 47°11' W 122°40'3 2.5
2015-Jul-03 13:33N 47°10' W 122°36'0 0.0
2015-Jul-03 12:33N 47°10' W 122°36'3 0.4
2015-Jul-03 05:31N 47°11' W 122°41'1 1.2
2015-Jul-03 04:33N 47°10' W 122°39'0 0.3
2015-Jul-03 03:33N 47°11' W 122°39'0 0.4
2015-Jul-03 02:33N 47°11' W 122°38'1 1.0
2015-Jul-03 01:30N 47°10' W 122°37'1 0.9
2015-Jul-03 00:25N 47°10' W 122°36'0 0.0
2015-Jul-02 23:33N 47°10' W 122°36'0 0.0
2015-Jul-02 22:19N 47°10' W 122°36'0 0.0
2015-Jul-02 21:15N 47°10' W 122°36'0 0.1
2015-Jul-02 20:33N 47°10' W 122°36'3 3.1
2015-Jul-02 19:33N 47°11' W 122°41'3 2.9
2015-Jul-02 18:31N 47°10' W 122°36'3 2.9
2015-Jul-02 17:28N 47°11' W 122°41'0 0.0
2015-Jul-02 16:33N 47°11' W 122°41'0 0.3
2015-Jul-02 15:33N 47°11' W 122°40'0 0.2
2015-Jul-02 14:33N 47°11' W 122°40'3 2.5
2015-Jul-02 13:33N 47°10' W 122°36'0 0.0
2015-Jul-02 12:33N 47°10' W 122°36'0 0.0
2015-Jul-02 03:17N 47°10' W 122°36'0 0.0
2015-Jul-02 02:33N 47°10' W 122°36'0 0.0
2015-Jul-02 01:33N 47°10' W 122°36'2 2.1
2015-Jul-02 00:33N 47°11' W 122°39'0 0.2
2015-Jul-01 23:33N 47°11' W 122°39'1 0.7
2015-Jul-01 22:33N 47°11' W 122°40'0 0.1
2015-Jul-01 21:31N 47°11' W 122°41'3 2.4
2015-Jul-01 20:16N 47°10' W 122°36'3 4.2
2015-Jul-01 19:32N 47°11' W 122°41'3 3.1
2015-Jul-01 18:33N 47°10' W 122°36'3 2.7
2015-Jul-01 17:32N 47°11' W 122°40'0 0.2
2015-Jul-01 16:30N 47°11' W 122°40'0 0.1
2015-Jul-01 15:24N 47°11' W 122°41'0 0.3
2015-Jul-01 14:18N 47°11' W 122°40'3 3.6
2015-Jul-01 13:33N 47°10' W 122°36'0 0.0
2015-Jul-01 12:32N 47°10' W 122°36'0 0.0
2015-Jul-01 03:17N 47°10' W 122°36'0 0.0
2015-Jul-01 02:33N 47°10' W 122°36'0 0.0
2015-Jul-01 01:33N 47°10' W 122°36'2 1.7
2015-Jul-01 00:33N 47°11' W 122°39'0 0.4
2015-Jun-30 23:33N 47°11' W 122°39'1 0.8
2015-Jun-30 22:29N 47°11' W 122°41'0 0.0
2015-Jun-30 21:28N 47°11' W 122°41'3 2.6
2015-Jun-30 20:20N 47°10' W 122°36'3 2.9
2015-Jun-30 19:18N 47°11' W 122°40'3 3.9
2015-Jun-30 18:33N 47°10' W 122°36'0 0.0
2015-Jun-30 17:59N 47°10' W 122°36'2 5.7
2015-Jun-30 17:33N 47°11' W 122°40'0 0.1
2015-Jun-30 16:34N 47°11' W 122°40'0 0.2
2015-Jun-30 15:33N 47°11' W 122°40'0 0.5
2015-Jun-30 14:33N 47°11' W 122°41'3 3.0
2015-Jun-30 13:33N 47°10' W 122°36'0 0.0
2015-Jun-30 12:33N 47°10' W 122°36'0 0.0
2015-Jun-30 03:20N 47°10' W 122°36'0 0.4
2015-Jun-30 02:33N 47°11' W 122°37'0 0.3
2015-Jun-30 01:33N 47°10' W 122°36'3 2.7
2015-Jun-30 00:33N 47°11' W 122°40'0 0.3
2015-Jun-29 23:29N 47°11' W 122°41'3 7.5
2015-Jun-29 23:05N 47°10' W 122°36'3 5.7
2015-Jun-29 22:33N 47°11' W 122°41'0 0.0
2015-Jun-29 21:29N 47°11' W 122°41'3 3.3
2015-Jun-29 20:34N 47°10' W 122°36'3 2.1
2015-Jun-29 19:17N 47°11' W 122°40'3 3.8
2015-Jun-29 18:34N 47°10' W 122°36'0 0.0
2015-Jun-29 18:07N 47°10' W 122°36'3 4.2
2015-Jun-29 17:24N 47°11' W 122°41'0 0.1
2015-Jun-29 16:24N 47°11' W 122°40'0 0.0
2015-Jun-29 15:22N 47°11' W 122°40'0 0.1
2015-Jun-29 14:24N 47°11' W 122°41'3 3.6
2015-Jun-29 13:33N 47°10' W 122°36'0 0.0
2015-Jun-29 12:36N 47°10' W 122°36'1 0.1
2015-Jun-29 04:33N 47°10' W 122°38'1 1.2
2015-Jun-29 03:33N 47°10' W 122°36'0 0.0
2015-Jun-29 02:33N 47°10' W 122°36'0 0.0
2015-Jun-29 01:30N 47°10' W 122°36'1 1.1
2015-Jun-29 00:33N 47°11' W 122°38'0 0.3
2015-Jun-28 23:33N 47°11' W 122°38'1 1.4
2015-Jun-28 22:33N 47°11' W 122°40'0 0.3
2015-Jun-28 21:32N 47°11' W 122°41'3 3.1
2015-Jun-28 20:33N 47°10' W 122°36'3 2.3
2015-Jun-28 19:16N 47°11' W 122°41'3 4.2
2015-Jun-28 18:33N 47°10' W 122°36'3 3.0
2015-Jun-28 17:33N 47°11' W 122°40'1 0.6
2015-Jun-28 16:33N 47°11' W 122°40'0 0.1
2015-Jun-28 15:33N 47°11' W 122°40'0 0.2
2015-Jun-28 14:32N 47°11' W 122°40'3 2.6
2015-Jun-28 13:33N 47°10' W 122°36'0 0.0
2015-Jun-28 06:07N 47°10' W 122°36'3 5.1
2015-Jun-28 05:33N 47°11' W 122°40'3 2.9
2015-Jun-28 04:33N 47°10' W 122°36'0 0.0
2015-Jun-28 03:26N 47°10' W 122°36'0 0.5
2015-Jun-28 02:33N 47°11' W 122°37'0 0.2
2015-Jun-28 01:19N 47°11' W 122°36'2 3.1
2015-Jun-28 00:33N 47°11' W 122°40'0 0.1
2015-Jun-27 23:33N 47°11' W 122°40'1 1.0
2015-Jun-27 22:30N 47°11' W 122°38'0 0.1
2015-Jun-27 21:21N 47°11' W 122°39'2 1.3
2015-Jun-27 20:05N 47°10' W 122°36'3 5.0
2015-Jun-27 19:33N 47°11' W 122°40'3 2.6
2015-Jun-27 18:33N 47°10' W 122°36'3 2.5
2015-Jun-27 17:23N 47°11' W 122°40'0 0.5
2015-Jun-27 16:33N 47°11' W 122°40'0 0.1
2015-Jun-27 15:33N 47°11' W 122°40'0 0.0
2015-Jun-27 14:33N 47°11' W 122°40'2 2.4
2015-Jun-27 13:33N 47°10' W 122°36'0 0.0
2015-Jun-27 12:29N 47°10' W 122°36'0 0.0
2015-Jun-27 06:07N 47°10' W 122°36'3 4.8
2015-Jun-27 05:33N 47°11' W 122°40'2 1.9
2015-Jun-27 04:33N 47°11' W 122°37'2 1.5
2015-Jun-27 03:32N 47°11' W 122°40'0 0.4
2015-Jun-27 02:33N 47°11' W 122°40'2 2.0
2015-Jun-27 01:33N 47°10' W 122°37'1 0.8
2015-Jun-27 00:21N 47°10' W 122°36'0 0.0
2015-Jun-26 23:14N 47°10' W 122°36'1 2.0
2015-Jun-26 22:33N 47°11' W 122°38'2 1.5
2015-Jun-26 21:29N 47°11' W 122°40'3 3.2
2015-Jun-26 20:33N 47°10' W 122°36'3 2.5
2015-Jun-26 19:20N 47°11' W 122°41'3 3.8
2015-Jun-26 18:33N 47°10' W 122°36'3 2.7
2015-Jun-26 17:28N 47°11' W 122°40'0 0.0
2015-Jun-26 16:21N 47°11' W 122°40'0 0.5
2015-Jun-26 15:33N 47°11' W 122°40'0 0.4
2015-Jun-26 14:22N 47°11' W 122°41'3 3.7
2015-Jun-26 13:33N 47°11' W 122°36'1 0.1
2015-Jun-26 04:32N 47°10' W 122°38'1 1.0
2015-Jun-26 03:19N 47°10' W 122°36'0 0.0
2015-Jun-26 02:18N 47°10' W 122°36'0 0.5
2015-Jun-26 01:33N 47°11' W 122°37'3 2.5
2015-Jun-26 00:30N 47°11' W 122°40'0 0.1
2015-Jun-25 23:33N 47°11' W 122°41'0 0.0
2015-Jun-25 22:29N 47°11' W 122°41'0 0.0
2015-Jun-25 21:30N 47°11' W 122°41'3 2.3
2015-Jun-25 20:11N 47°10' W 122°36'3 3.5
2015-Jun-25 19:21N 47°11' W 122°40'0 0.0
2015-Jun-25 17:26N 47°11' W 122°40'0 0.0
2015-Jun-25 16:21N 47°11' W 122°40'0 0.0
2015-Jun-25 15:17N 47°11' W 122°40'0 0.2
2015-Jun-25 14:33N 47°11' W 122°40'3 2.7
2015-Jun-25 13:32N 47°11' W 122°36'0 0.1
2015-Jun-25 12:29N 47°10' W 122°36'0 0.0
2015-Jun-25 03:20N 47°10' W 122°36'0 0.0
2015-Jun-25 02:33N 47°10' W 122°36'0 0.0
2015-Jun-25 01:33N 47°10' W 122°36'3 2.8
2015-Jun-25 00:30N 47°11' W 122°40'0 0.0
2015-Jun-24 23:30N 47°11' W 122°40'0 0.0
2015-Jun-24 22:26N 47°11' W 122°40'0 0.2
2015-Jun-24 21:25N 47°11' W 122°40'3 3.2
2015-Jun-24 20:33N 47°10' W 122°36'3 3.0
2015-Jun-24 19:31N 47°11' W 122°41'3 3.1
2015-Jun-24 18:33N 47°10' W 122°36'3 2.6
2015-Jun-24 17:24N 47°11' W 122°40'0 0.0
2015-Jun-24 16:23N 47°11' W 122°40'0 0.0
2015-Jun-24 15:19N 47°11' W 122°40'0 0.5
2015-Jun-24 14:33N 47°11' W 122°40'3 2.6
2015-Jun-24 13:33N 47°10' W 122°36'0 0.1
2015-Jun-24 12:33N 47°10' W 122°36'  
Track history (hours):
 
Tides and Currents Weather Stations Pressure Air Temp Water Temp Dewpoint Dewpoint Depression Visibility Wind Speed Wind Dir Waves Ship Positions

Christine Anderson

Owner: PIERCE, COUNTY OF, TACOMA, WA. More information available from US FCC via Universal Licensing System and Coast Guard Vessel Documentation Center.

Last reported at 2015-Jul-04 06:29 UTC. Time now 2015-Jul-04 10:05 UTC.
Position N 47°11' W 122°41'.

MMSI: 366659730.

Date/timePositionNaut miles runAvg speedWind from/ knotsBaromVisibWave heightAir tempDewpointWater temp
2015-Jul-04 06:29N 47°11' W 122°41'1 0.7
2015-Jul-04 05:33N 47°11' W 122°40'2 2.3
2015-Jul-04 04:30N 47°10' W 122°36'0 0.0
2015-Jul-04 03:33N 47°10' W 122°36'0 0.0
2015-Jul-04 02:33N 47°10' W 122°36'0 0.4
2015-Jul-04 01:33N 47°11' W 122°37'3 2.5
2015-Jul-04 00:27N 47°11' W 122°41'0 0.4
2015-Jul-03 23:32N 47°11' W 122°40'1 1.3
2015-Jul-03 22:33N 47°11' W 122°38'1 1.1
2015-Jul-03 21:32N 47°11' W 122°37'0 0.4
2015-Jul-03 20:33N 47°10' W 122°36'2 1.6
2015-Jul-03 19:33N 47°11' W 122°38'0 0.4
2015-Jul-03 18:32N 47°11' W 122°39'1 1.0
2015-Jul-03 17:32N 47°11' W 122°40'0 0.2
2015-Jul-03 16:31N 47°11' W 122°41'0 0.0
2015-Jul-03 15:25N 47°11' W 122°40'0 0.5
2015-Jul-03 14:33N 47°11' W 122°40'3 2.5
2015-Jul-03 13:33N 47°10' W 122°36'0 0.0
2015-Jul-03 12:33N 47°10' W 122°36'3 0.4
2015-Jul-03 05:31N 47°11' W 122°41'1 1.2
2015-Jul-03 04:33N 47°10' W 122°39'0 0.3
2015-Jul-03 03:33N 47°11' W 122°39'0 0.4
2015-Jul-03 02:33N 47°11' W 122°38'1 1.0
2015-Jul-03 01:30N 47°10' W 122°37'1 0.9
2015-Jul-03 00:25N 47°10' W 122°36'0 0.0
2015-Jul-02 23:33N 47°10' W 122°36'0 0.0
2015-Jul-02 22:19N 47°10' W 122°36'0 0.0
2015-Jul-02 21:15N 47°10' W 122°36'0 0.1
2015-Jul-02 20:33N 47°10' W 122°36'3 3.1
2015-Jul-02 19:33N 47°11' W 122°41'3 2.9
2015-Jul-02 18:31N 47°10' W 122°36'3 2.9
2015-Jul-02 17:28N 47°11' W 122°41'0 0.0
2015-Jul-02 16:33N 47°11' W 122°41'0 0.3
2015-Jul-02 15:33N 47°11' W 122°40'0 0.2
2015-Jul-02 14:33N 47°11' W 122°40'3 2.5
2015-Jul-02 13:33N 47°10' W 122°36'0 0.0
2015-Jul-02 12:33N 47°10' W 122°36'0 0.0
2015-Jul-02 03:17N 47°10' W 122°36'0 0.0
2015-Jul-02 02:33N 47°10' W 122°36'0 0.0
2015-Jul-02 01:33N 47°10' W 122°36'2 2.1
2015-Jul-02 00:33N 47°11' W 122°39'0 0.2
2015-Jul-01 23:33N 47°11' W 122°39'1 0.7
2015-Jul-01 22:33N 47°11' W 122°40'0 0.1
2015-Jul-01 21:31N 47°11' W 122°41'3 2.4
2015-Jul-01 20:16N 47°10' W 122°36'3 4.2
2015-Jul-01 19:32N 47°11' W 122°41'3 3.1
2015-Jul-01 18:33N 47°10' W 122°36'3 2.7
2015-Jul-01 17:32N 47°11' W 122°40'0 0.2
2015-Jul-01 16:30N 47°11' W 122°40'0 0.1
2015-Jul-01 15:24N 47°11' W 122°41'0 0.3
2015-Jul-01 14:18N 47°11' W 122°40'3 3.6
2015-Jul-01 13:33N 47°10' W 122°36'0 0.0
2015-Jul-01 12:32N 47°10' W 122°36'0 0.0
2015-Jul-01 03:17N 47°10' W 122°36'0 0.0
2015-Jul-01 02:33N 47°10' W 122°36'0 0.0
2015-Jul-01 01:33N 47°10' W 122°36'2 1.7
2015-Jul-01 00:33N 47°11' W 122°39'0 0.4
2015-Jun-30 23:33N 47°11' W 122°39'1 0.8
2015-Jun-30 22:29N 47°11' W 122°41'0 0.0
2015-Jun-30 21:28N 47°11' W 122°41'3 2.6
2015-Jun-30 20:20N 47°10' W 122°36'3 2.9
2015-Jun-30 19:18N 47°11' W 122°40'3 3.9
2015-Jun-30 18:33N 47°10' W 122°36'0 0.0
2015-Jun-30 17:59N 47°10' W 122°36'2 5.7
2015-Jun-30 17:33N 47°11' W 122°40'0 0.1
2015-Jun-30 16:34N 47°11' W 122°40'0 0.2
2015-Jun-30 15:33N 47°11' W 122°40'0 0.5
2015-Jun-30 14:33N 47°11' W 122°41'3 3.0
2015-Jun-30 13:33N 47°10' W 122°36'0 0.0
2015-Jun-30 12:33N 47°10' W 122°36'0 0.0
2015-Jun-30 03:20N 47°10' W 122°36'0 0.4
2015-Jun-30 02:33N 47°11' W 122°37'0 0.3
2015-Jun-30 01:33N 47°10' W 122°36'3 2.7
2015-Jun-30 00:33N 47°11' W 122°40'0 0.3
2015-Jun-29 23:29N 47°11' W 122°41'3 7.5
2015-Jun-29 23:05N 47°10' W 122°36'3 5.7
2015-Jun-29 22:33N 47°11' W 122°41'0 0.0
2015-Jun-29 21:29N 47°11' W 122°41'3 3.3
2015-Jun-29 20:34N 47°10' W 122°36'3 2.1
2015-Jun-29 19:17N 47°11' W 122°40'3 3.8
2015-Jun-29 18:34N 47°10' W 122°36'0 0.0
2015-Jun-29 18:07N 47°10' W 122°36'3 4.2
2015-Jun-29 17:24N 47°11' W 122°41'0 0.1
2015-Jun-29 16:24N 47°11' W 122°40'0 0.0
2015-Jun-29 15:22N 47°11' W 122°40'0 0.1
2015-Jun-29 14:24N 47°11' W 122°41'3 3.6
2015-Jun-29 13:33N 47°10' W 122°36'0 0.0
2015-Jun-29 12:36N 47°10' W 122°36'1 0.1
2015-Jun-29 04:33N 47°10' W 122°38'1 1.2
2015-Jun-29 03:33N 47°10' W 122°36'0 0.0
2015-Jun-29 02:33N 47°10' W 122°36'0 0.0
2015-Jun-29 01:30N 47°10' W 122°36'1 1.1
2015-Jun-29 00:33N 47°11' W 122°38'0 0.3
2015-Jun-28 23:33N 47°11' W 122°38'1 1.4
2015-Jun-28 22:33N 47°11' W 122°40'0 0.3
2015-Jun-28 21:32N 47°11' W 122°41'3 3.1
2015-Jun-28 20:33N 47°10' W 122°36'3 2.3
2015-Jun-28 19:16N 47°11' W 122°41'3 4.2
2015-Jun-28 18:33N 47°10' W 122°36'3 3.0
2015-Jun-28 17:33N 47°11' W 122°40'1 0.6
2015-Jun-28 16:33N 47°11' W 122°40'0 0.1
2015-Jun-28 15:33N 47°11' W 122°40'0 0.2
2015-Jun-28 14:32N 47°11' W 122°40'3 2.6
2015-Jun-28 13:33N 47°10' W 122°36'0 0.0
2015-Jun-28 06:07N 47°10' W 122°36'3 5.1
2015-Jun-28 05:33N 47°11' W 122°40'3 2.9
2015-Jun-28 04:33N 47°10' W 122°36'0 0.0
2015-Jun-28 03:26N 47°10' W 122°36'0 0.5
2015-Jun-28 02:33N 47°11' W 122°37'0 0.2
2015-Jun-28 01:19N 47°11' W 122°36'2 3.1
2015-Jun-28 00:33N 47°11' W 122°40'0 0.1
2015-Jun-27 23:33N 47°11' W 122°40'1 1.0
2015-Jun-27 22:30N 47°11' W 122°38'0 0.1
2015-Jun-27 21:21N 47°11' W 122°39'2 1.3
2015-Jun-27 20:05N 47°10' W 122°36'3 5.0
2015-Jun-27 19:33N 47°11' W 122°40'3 2.6
2015-Jun-27 18:33N 47°10' W 122°36'3 2.5
2015-Jun-27 17:23N 47°11' W 122°40'0 0.5
2015-Jun-27 16:33N 47°11' W 122°40'0 0.1
2015-Jun-27 15:33N 47°11' W 122°40'0 0.0
2015-Jun-27 14:33N 47°11' W 122°40'2 2.4
2015-Jun-27 13:33N 47°10' W 122°36'0 0.0
2015-Jun-27 12:29N 47°10' W 122°36'0 0.0
2015-Jun-27 06:07N 47°10' W 122°36'3 4.8
2015-Jun-27 05:33N 47°11' W 122°40'2 1.9
2015-Jun-27 04:33N 47°11' W 122°37'2 1.5
2015-Jun-27 03:32N 47°11' W 122°40'0 0.4
2015-Jun-27 02:33N 47°11' W 122°40'2 2.0
2015-Jun-27 01:33N 47°10' W 122°37'1 0.8
2015-Jun-27 00:21N 47°10' W 122°36'0 0.0
2015-Jun-26 23:14N 47°10' W 122°36'1 2.0
2015-Jun-26 22:33N 47°11' W 122°38'2 1.5
2015-Jun-26 21:29N 47°11' W 122°40'3 3.2
2015-Jun-26 20:33N 47°10' W 122°36'3 2.5
2015-Jun-26 19:20N 47°11' W 122°41'3 3.8
2015-Jun-26 18:33N 47°10' W 122°36'3 2.7
2015-Jun-26 17:28N 47°11' W 122°40'0 0.0
2015-Jun-26 16:21N 47°11' W 122°40'0 0.5
2015-Jun-26 15:33N 47°11' W 122°40'0 0.4
2015-Jun-26 14:22N 47°11' W 122°41'3 3.7
2015-Jun-26 13:33N 47°11' W 122°36'1 0.1
2015-Jun-26 04:32N 47°10' W 122°38'1 1.0
2015-Jun-26 03:19N 47°10' W 122°36'0 0.0
2015-Jun-26 02:18N 47°10' W 122°36'0 0.5
2015-Jun-26 01:33N 47°11' W 122°37'3 2.5
2015-Jun-26 00:30N 47°11' W 122°40'0 0.1
2015-Jun-25 23:33N 47°11' W 122°41'0 0.0
2015-Jun-25 22:29N 47°11' W 122°41'0 0.0
2015-Jun-25 21:30N 47°11' W 122°41'3 2.3
2015-Jun-25 20:11N 47°10' W 122°36'3 3.5
2015-Jun-25 19:21N 47°11' W 122°40'0 0.0
2015-Jun-25 17:26N 47°11' W 122°40'0 0.0
2015-Jun-25 16:21N 47°11' W 122°40'0 0.0
2015-Jun-25 15:17N 47°11' W 122°40'0 0.2
2015-Jun-25 14:33N 47°11' W 122°40'3 2.7
2015-Jun-25 13:32N 47°11' W 122°36'0 0.1
2015-Jun-25 12:29N 47°10' W 122°36'0 0.0
2015-Jun-25 03:20N 47°10' W 122°36'0 0.0
2015-Jun-25 02:33N 47°10' W 122°36'0 0.0
2015-Jun-25 01:33N 47°10' W 122°36'3 2.8
2015-Jun-25 00:30N 47°11' W 122°40'0 0.0
2015-Jun-24 23:30N 47°11' W 122°40'0 0.0
2015-Jun-24 22:26N 47°11' W 122°40'0 0.2
2015-Jun-24 21:25N 47°11' W 122°40'3 3.2
2015-Jun-24 20:33N 47°10' W 122°36'3 3.0
2015-Jun-24 19:31N 47°11' W 122°41'3 3.1
2015-Jun-24 18:33N 47°10' W 122°36'3 2.6
2015-Jun-24 17:24N 47°11' W 122°40'0 0.0
2015-Jun-24 16:23N 47°11' W 122°40'0 0.0
2015-Jun-24 15:19N 47°11' W 122°40'0 0.5
2015-Jun-24 14:33N 47°11' W 122°40'3 2.6
2015-Jun-24 13:33N 47°10' W 122°36'0 0.1
2015-Jun-24 12:33N 47°10' W 122°36'  

Dump ship's entire track history